sensor_id;sensor_type;location;lat;lon;timestamp;pressure;altitude;pressure_sealevel;temperature;humidity
21904;BME280;11116;51.554;7.812;2022-09-28T00:00:41;98673.31;;;8.16;100.00
21904;BME280;11116;51.554;7.812;2022-09-28T00:03:12;98672.31;;;8.17;100.00
21904;BME280;11116;51.554;7.812;2022-09-28T00:05:39;98678.34;;;8.02;100.00
21904;BME280;11116;51.554;7.812;2022-09-28T00:08:05;98676.56;;;8.10;100.00
21904;BME280;11116;51.554;7.812;2022-09-28T00:10:32;98673.28;;;8.08;100.00
21904;BME280;11116;51.554;7.812;2022-09-28T00:12:59;98678.03;;;8.05;100.00
21904;BME280;11116;51.554;7.812;2022-09-28T00:15:28;98663.91;;;8.06;100.00
21904;BME280;11116;51.554;7.812;2022-09-28T00:17:55;98670.16;;;8.05;100.00
21904;BME280;11116;51.554;7.812;2022-09-28T00:20:22;98666.38;;;8.07;100.00
21904;BME280;11116;51.554;7.812;2022-09-28T00:22:49;98664.13;;;8.20;100.00
21904;BME280;11116;51.554;7.812;2022-09-28T00:25:16;98662.13;;;8.14;100.00
21904;BME280;11116;51.554;7.812;2022-09-28T00:27:48;98661.81;;;8.17;100.00
21904;BME280;11116;51.554;7.812;2022-09-28T00:30:16;98655.06;;;8.23;100.00
21904;BME280;11116;51.554;7.812;2022-09-28T00:32:44;98654.09;;;8.24;100.00
21904;BME280;11116;51.554;7.812;2022-09-28T00:35:11;98653.78;;;8.27;100.00
21904;BME280;11116;51.554;7.812;2022-09-28T00:37:38;98652.75;;;8.12;100.00
21904;BME280;11116;51.554;7.812;2022-09-28T00:40:06;98653.28;;;8.15;100.00
21904;BME280;11116;51.554;7.812;2022-09-28T00:42:33;98654.56;;;8.19;100.00
21904;BME280;11116;51.554;7.812;2022-09-28T00:45:00;98650.03;;;8.29;100.00
21904;BME280;11116;51.554;7.812;2022-09-28T00:47:40;98644.78;;;8.29;100.00
21904;BME280;11116;51.554;7.812;2022-09-28T00:50:14;98646.53;;;8.21;100.00
21904;BME280;11116;51.554;7.812;2022-09-28T00:52:48;98645.38;;;8.15;100.00
21904;BME280;11116;51.554;7.812;2022-09-28T00:55:21;98638.78;;;8.11;100.00
21904;BME280;11116;51.554;7.812;2022-09-28T00:57:54;98635.38;;;8.27;100.00
21904;BME280;11116;51.554;7.812;2022-09-28T01:00:23;98645.00;;;8.10;100.00
21904;BME280;11116;51.554;7.812;2022-09-28T01:02:50;98640.91;;;8.08;100.00
21904;BME280;11116;51.554;7.812;2022-09-28T01:05:19;98646.16;;;8.08;100.00
21904;BME280;11116;51.554;7.812;2022-09-28T01:07:48;98640.06;;;8.07;100.00
21904;BME280;11116;51.554;7.812;2022-09-28T01:10:15;98638.97;;;8.10;100.00
21904;BME280;11116;51.554;7.812;2022-09-28T01:12:42;98632.88;;;8.09;100.00
21904;BME280;11116;51.554;7.812;2022-09-28T01:15:09;98635.81;;;8.06;100.00
21904;BME280;11116;51.554;7.812;2022-09-28T01:17:48;98636.97;;;8.04;100.00
21904;BME280;11116;51.554;7.812;2022-09-28T01:20:26;98633.84;;;8.08;100.00
21904;BME280;11116;51.554;7.812;2022-09-28T01:23:22;98634.53;;;8.18;100.00
21904;BME280;11116;51.554;7.812;2022-09-28T01:29:01;98632.03;;;8.01;100.00
21904;BME280;11116;51.554;7.812;2022-09-28T01:31:34;98645.66;;;8.04;100.00
21904;BME280;11116;51.554;7.812;2022-09-28T01:34:07;98647.13;;;7.98;100.00
21904;BME280;11116;51.554;7.812;2022-09-28T01:36:40;98642.88;;;8.06;100.00
21904;BME280;11116;51.554;7.812;2022-09-28T01:39:14;98643.22;;;8.19;100.00
21904;BME280;11116;51.554;7.812;2022-09-28T01:41:45;98639.94;;;8.09;100.00
21904;BME280;11116;51.554;7.812;2022-09-28T01:44:19;98637.97;;;8.11;100.00
21904;BME280;11116;51.554;7.812;2022-09-28T01:46:48;98638.25;;;8.00;100.00
21904;BME280;11116;51.554;7.812;2022-09-28T01:49:19;98641.59;;;8.10;100.00
21904;BME280;11116;51.554;7.812;2022-09-28T01:51:52;98639.09;;;8.00;100.00
21904;BME280;11116;51.554;7.812;2022-09-28T01:54:25;98640.25;;;7.97;100.00
21904;BME280;11116;51.554;7.812;2022-09-28T01:56:56;98635.13;;;7.96;100.00
21904;BME280;11116;51.554;7.812;2022-09-28T01:59:27;98640.25;;;7.97;100.00
21904;BME280;11116;51.554;7.812;2022-09-28T02:01:58;98640.88;;;7.91;100.00
21904;BME280;11116;51.554;7.812;2022-09-28T02:04:30;98636.28;;;7.93;100.00
21904;BME280;11116;51.554;7.812;2022-09-28T02:07:02;98643.19;;;7.94;100.00
21904;BME280;11116;51.554;7.812;2022-09-28T02:09:33;98643.34;;;7.93;100.00
21904;BME280;11116;51.554;7.812;2022-09-28T02:12:04;98643.66;;;7.90;100.00
21904;BME280;11116;51.554;7.812;2022-09-28T02:14:39;98653.03;;;7.92;100.00
21904;BME280;11116;51.554;7.812;2022-09-28T02:17:09;98645.44;;;7.89;100.00
21904;BME280;11116;51.554;7.812;2022-09-28T02:19:38;98650.06;;;7.87;100.00
21904;BME280;11116;51.554;7.812;2022-09-28T02:22:17;98645.94;;;7.85;100.00
21904;BME280;11116;51.554;7.812;2022-09-28T02:24:53;98639.53;;;7.87;100.00
21904;BME280;11116;51.554;7.812;2022-09-28T02:27:30;98642.97;;;7.80;100.00
21904;BME280;11116;51.554;7.812;2022-09-28T02:30:03;98648.22;;;7.80;100.00
21904;BME280;11116;51.554;7.812;2022-09-28T02:32:34;98640.81;;;7.75;100.00
21904;BME280;11116;51.554;7.812;2022-09-28T02:35:07;98647.22;;;7.73;100.00
21904;BME280;11116;51.554;7.812;2022-09-28T02:37:34;98650.16;;;7.70;100.00
21904;BME280;11116;51.554;7.812;2022-09-28T02:40:02;98646.22;;;7.66;100.00
21904;BME280;11116;51.554;7.812;2022-09-28T02:42:36;98643.06;;;7.62;100.00
21904;BME280;11116;51.554;7.812;2022-09-28T02:45:17;98644.22;;;7.60;100.00
21904;BME280;11116;51.554;7.812;2022-09-28T02:47:59;98648.63;;;7.59;100.00
21904;BME280;11116;51.554;7.812;2022-09-28T02:50:38;98648.94;;;7.56;100.00
21904;BME280;11116;51.554;7.812;2022-09-28T02:53:24;98652.03;;;7.52;100.00
21904;BME280;11116;51.554;7.812;2022-09-28T02:56:09;98652.44;;;7.65;100.00
21904;BME280;11116;51.554;7.812;2022-09-28T02:58:47;98650.28;;;7.60;100.00
21904;BME280;11116;51.554;7.812;2022-09-28T03:01:27;98647.97;;;7.57;100.00
21904;BME280;11116;51.554;7.812;2022-09-28T03:04:04;98649.78;;;7.57;100.00
21904;BME280;11116;51.554;7.812;2022-09-28T03:06:37;98654.03;;;7.58;100.00
21904;BME280;11116;51.554;7.812;2022-09-28T03:09:11;98653.41;;;7.64;100.00
21904;BME280;11116;51.554;7.812;2022-09-28T03:11:44;98651.78;;;7.63;100.00
21904;BME280;11116;51.554;7.812;2022-09-28T03:14:13;98656.34;;;7.61;100.00
21904;BME280;11116;51.554;7.812;2022-09-28T03:16:57;98656.09;;;7.72;100.00
21904;BME280;11116;51.554;7.812;2022-09-28T03:19:26;98648.53;;;7.69;100.00
21904;BME280;11116;51.554;7.812;2022-09-28T03:21:55;98649.84;;;7.81;100.00
21904;BME280;11116;51.554;7.812;2022-09-28T03:24:23;98655.09;;;7.73;100.00
21904;BME280;11116;51.554;7.812;2022-09-28T03:26:50;98654.91;;;7.66;100.00
21904;BME280;11116;51.554;7.812;2022-09-28T03:29:17;98652.78;;;7.70;100.00
21904;BME280;11116;51.554;7.812;2022-09-28T03:31:50;98654.25;;;7.72;100.00
21904;BME280;11116;51.554;7.812;2022-09-28T03:34:18;98641.63;;;7.68;100.00
21904;BME280;11116;51.554;7.812;2022-09-28T03:36:45;98652.97;;;7.76;100.00
21904;BME280;11116;51.554;7.812;2022-09-28T03:39:12;98650.63;;;7.65;100.00
21904;BME280;11116;51.554;7.812;2022-09-28T03:41:39;98646.66;;;7.61;100.00
21904;BME280;11116;51.554;7.812;2022-09-28T03:44:06;98645.38;;;7.65;100.00
21904;BME280;11116;51.554;7.812;2022-09-28T03:46:34;98654.41;;;7.63;100.00
21904;BME280;11116;51.554;7.812;2022-09-28T03:49:05;98648.00;;;7.65;100.00
21904;BME280;11116;51.554;7.812;2022-09-28T03:51:33;98648.66;;;7.67;100.00
21904;BME280;11116;51.554;7.812;2022-09-28T03:54:00;98652.31;;;7.74;100.00
21904;BME280;11116;51.554;7.812;2022-09-28T03:56:27;98648.16;;;7.64;100.00
21904;BME280;11116;51.554;7.812;2022-09-28T03:58:54;98653.91;;;7.67;100.00
21904;BME280;11116;51.554;7.812;2022-09-28T04:01:21;98651.28;;;7.67;100.00
21904;BME280;11116;51.554;7.812;2022-09-28T04:03:52;98649.31;;;7.69;100.00
21904;BME280;11116;51.554;7.812;2022-09-28T04:06:19;98645.69;;;7.62;100.00
21904;BME280;11116;51.554;7.812;2022-09-28T04:08:48;98649.50;;;7.68;100.00
21904;BME280;11116;51.554;7.812;2022-09-28T04:11:15;98638.81;;;7.69;100.00
21904;BME280;11116;51.554;7.812;2022-09-28T04:13:46;98643.13;;;7.78;100.00
21904;BME280;11116;51.554;7.812;2022-09-28T04:16:13;98647.06;;;7.74;100.00
21904;BME280;11116;51.554;7.812;2022-09-28T04:18:47;98646.78;;;7.85;100.00
21904;BME280;11116;51.554;7.812;2022-09-28T04:21:33;98650.69;;;7.81;100.00
21904;BME280;11116;51.554;7.812;2022-09-28T04:24:09;98643.16;;;7.86;100.00
21904;BME280;11116;51.554;7.812;2022-09-28T04:26:37;98649.59;;;7.92;100.00
21904;BME280;11116;51.554;7.812;2022-09-28T04:29:04;98652.03;;;7.85;100.00
21904;BME280;11116;51.554;7.812;2022-09-28T04:31:47;98655.16;;;7.89;100.00
21904;BME280;11116;51.554;7.812;2022-09-28T04:34:17;98652.84;;;7.86;100.00
21904;BME280;11116;51.554;7.812;2022-09-28T04:36:45;98652.66;;;7.79;100.00
21904;BME280;11116;51.554;7.812;2022-09-28T04:39:15;98657.41;;;7.76;100.00
21904;BME280;11116;51.554;7.812;2022-09-28T04:41:47;98659.19;;;7.67;100.00
21904;BME280;11116;51.554;7.812;2022-09-28T04:44:14;98656.41;;;7.69;100.00
21904;BME280;11116;51.554;7.812;2022-09-28T04:46:41;98666.22;;;7.67;100.00
21904;BME280;11116;51.554;7.812;2022-09-28T04:49:26;98664.09;;;7.62;100.00
21904;BME280;11116;51.554;7.812;2022-09-28T04:52:03;98657.16;;;7.53;100.00
21904;BME280;11116;51.554;7.812;2022-09-28T04:54:33;98670.09;;;7.55;100.00
21904;BME280;11116;51.554;7.812;2022-09-28T04:57:00;98662.41;;;7.53;100.00
21904;BME280;11116;51.554;7.812;2022-09-28T04:59:28;98669.47;;;7.61;100.00
21904;BME280;11116;51.554;7.812;2022-09-28T05:01:55;98667.84;;;7.60;100.00
21904;BME280;11116;51.554;7.812;2022-09-28T05:04:40;98669.13;;;7.56;100.00
21904;BME280;11116;51.554;7.812;2022-09-28T05:07:14;98668.81;;;7.59;100.00
21904;BME280;11116;51.554;7.812;2022-09-28T05:09:43;98670.97;;;7.63;100.00
21904;BME280;11116;51.554;7.812;2022-09-28T05:12:10;98667.78;;;7.52;100.00
21904;BME280;11116;51.554;7.812;2022-09-28T05:14:37;98662.38;;;7.45;100.00
21904;BME280;11116;51.554;7.812;2022-09-28T05:17:04;98668.06;;;7.40;100.00
21904;BME280;11116;51.554;7.812;2022-09-28T05:19:51;98666.59;;;7.38;100.00
21904;BME280;11116;51.554;7.812;2022-09-28T05:22:18;98667.72;;;7.35;100.00
21904;BME280;11116;51.554;7.812;2022-09-28T05:24:47;98670.22;;;7.37;100.00
21904;BME280;11116;51.554;7.812;2022-09-28T05:27:15;98662.81;;;7.40;100.00
21904;BME280;11116;51.554;7.812;2022-09-28T05:29:45;98667.94;;;7.42;100.00
21904;BME280;11116;51.554;7.812;2022-09-28T05:32:31;98674.78;;;7.35;100.00
21904;BME280;11116;51.554;7.812;2022-09-28T05:35:10;98671.38;;;7.43;100.00
21904;BME280;11116;51.554;7.812;2022-09-28T05:37:40;98671.69;;;7.39;100.00
21904;BME280;11116;51.554;7.812;2022-09-28T05:40:09;98673.00;;;7.44;100.00
21904;BME280;11116;51.554;7.812;2022-09-28T05:42:37;98672.50;;;7.40;100.00
21904;BME280;11116;51.554;7.812;2022-09-28T05:45:05;98674.38;;;7.48;100.00
21904;BME280;11116;51.554;7.812;2022-09-28T05:47:36;98669.75;;;7.50;100.00
21904;BME280;11116;51.554;7.812;2022-09-28T05:50:05;98674.81;;;7.43;100.00
21904;BME280;11116;51.554;7.812;2022-09-28T05:52:32;98671.69;;;7.39;100.00
21904;BME280;11116;51.554;7.812;2022-09-28T05:54:59;98672.03;;;7.45;100.00
21904;BME280;11116;51.554;7.812;2022-09-28T05:57:29;98670.41;;;7.52;100.00
21904;BME280;11116;51.554;7.812;2022-09-28T05:59:56;98679.22;;;7.68;100.00
21904;BME280;11116;51.554;7.812;2022-09-28T06:02:23;98677.50;;;7.51;100.00
21904;BME280;11116;51.554;7.812;2022-09-28T06:04:50;98677.50;;;7.51;100.00
21904;BME280;11116;51.554;7.812;2022-09-28T06:07:18;98679.97;;;7.53;100.00
21904;BME280;11116;51.554;7.812;2022-09-28T06:09:45;98684.59;;;7.59;100.00
21904;BME280;11116;51.554;7.812;2022-09-28T06:12:33;98678.16;;;7.53;100.00
21904;BME280;11116;51.554;7.812;2022-09-28T06:15:07;98680.16;;;7.59;100.00
21904;BME280;11116;51.554;7.812;2022-09-28T06:17:33;98686.25;;;7.60;100.00
21904;BME280;11116;51.554;7.812;2022-09-28T06:20:33;98685.38;;;7.51;100.00
21904;BME280;11116;51.554;7.812;2022-09-28T06:23:07;98696.06;;;7.58;100.00
21904;BME280;11116;51.554;7.812;2022-09-28T06:25:35;98691.19;;;7.63;100.00
21904;BME280;11116;51.554;7.812;2022-09-28T06:28:05;98692.50;;;7.67;100.00
21904;BME280;11116;51.554;7.812;2022-09-28T06:30:33;98694.78;;;7.62;100.00
21904;BME280;11116;51.554;7.812;2022-09-28T06:33:04;98698.59;;;7.67;100.00
21904;BME280;11116;51.554;7.812;2022-09-28T06:35:32;98701.75;;;7.79;100.00
21904;BME280;11116;51.554;7.812;2022-09-28T06:37:59;98704.25;;;7.80;100.00
21904;BME280;11116;51.554;7.812;2022-09-28T06:40:26;98705.56;;;7.84;100.00
21904;BME280;11116;51.554;7.812;2022-09-28T06:42:54;98709.22;;;7.91;100.00
21904;BME280;11116;51.554;7.812;2022-09-28T06:45:42;98710.28;;;8.07;100.00
21904;BME280;11116;51.554;7.812;2022-09-28T06:48:27;98704.69;;;8.10;100.00
21904;BME280;11116;51.554;7.812;2022-09-28T06:50:56;98716.63;;;7.96;100.00
21904;BME280;11116;51.554;7.812;2022-09-28T06:53:25;98712.22;;;8.05;100.00
21904;BME280;11116;51.554;7.812;2022-09-28T06:55:59;98711.06;;;8.07;100.00
21904;BME280;11116;51.554;7.812;2022-09-28T06:58:28;98717.16;;;8.08;100.00
21904;BME280;11116;51.554;7.812;2022-09-28T07:00:58;98715.22;;;8.10;100.00
21904;BME280;11116;51.554;7.812;2022-09-28T07:03:27;98709.28;;;8.16;100.00
21904;BME280;11116;51.554;7.812;2022-09-28T07:06:10;98711.59;;;8.19;100.00
21904;BME280;11116;51.554;7.812;2022-09-28T07:08:56;98710.94;;;8.17;100.00
21904;BME280;11116;51.554;7.812;2022-09-28T07:11:47;98714.78;;;8.30;100.00
21904;BME280;11116;51.554;7.812;2022-09-28T07:14:23;98717.41;;;8.30;100.00
21904;BME280;11116;51.554;7.812;2022-09-28T07:16:53;98709.38;;;8.40;100.00
21904;BME280;11116;51.554;7.812;2022-09-28T07:19:20;98718.94;;;8.49;100.00
21904;BME280;11116;51.554;7.812;2022-09-28T07:21:50;98724.91;;;8.67;100.00
21904;BME280;11116;51.554;7.812;2022-09-28T07:24:17;98725.88;;;8.74;100.00
21904;BME280;11116;51.554;7.812;2022-09-28T07:27:02;98730.16;;;8.67;100.00
21904;BME280;11116;51.554;7.812;2022-09-28T07:29:53;98732.94;;;8.74;100.00
21904;BME280;11116;51.554;7.812;2022-09-28T07:32:41;98735.91;;;8.71;100.00
21904;BME280;11116;51.554;7.812;2022-09-28T07:35:24;98728.19;;;8.85;100.00
21904;BME280;11116;51.554;7.812;2022-09-28T07:37:58;98730.81;;;8.77;100.00
21904;BME280;11116;51.554;7.812;2022-09-28T07:40:26;98731.00;;;8.84;100.00
21904;BME280;11116;51.554;7.812;2022-09-28T07:43:11;98729.84;;;8.86;100.00
21904;BME280;11116;51.554;7.812;2022-09-28T07:45:39;98730.34;;;8.90;100.00
21904;BME280;11116;51.554;7.812;2022-09-28T07:48:07;98730.16;;;8.91;100.00
21904;BME280;11116;51.554;7.812;2022-09-28T07:51:04;98733.63;;;9.00;100.00
21904;BME280;11116;51.554;7.812;2022-09-28T07:53:38;98736.41;;;8.74;100.00
21904;BME280;11116;51.554;7.812;2022-09-28T07:56:31;98738.25;;;8.98;100.00
21904;BME280;11116;51.554;7.812;2022-09-28T07:59:04;98736.41;;;8.82;100.00
21904;BME280;11116;51.554;7.812;2022-09-28T08:01:54;98736.28;;;8.84;100.00
21904;BME280;11116;51.554;7.812;2022-09-28T08:04:22;98747.13;;;8.97;100.00
21904;BME280;11116;51.554;7.812;2022-09-28T08:06:50;98752.75;;;9.02;100.00
21904;BME280;11116;51.554;7.812;2022-09-28T08:09:17;98743.50;;;9.06;100.00
21904;BME280;11116;51.554;7.812;2022-09-28T08:12:11;98750.91;;;9.27;100.00
21904;BME280;11116;51.554;7.812;2022-09-28T08:14:55;98747.63;;;9.25;100.00
21904;BME280;11116;51.554;7.812;2022-09-28T08:17:46;98750.59;;;9.46;100.00
21904;BME280;11116;51.554;7.812;2022-09-28T08:20:15;98752.69;;;9.58;100.00
21904;BME280;11116;51.554;7.812;2022-09-28T08:23:06;98753.88;;;9.48;100.00
21904;BME280;11116;51.554;7.812;2022-09-28T08:25:35;98753.19;;;9.62;100.00
21904;BME280;11116;51.554;7.812;2022-09-28T08:28:05;98758.78;;;9.59;100.00
21904;BME280;11116;51.554;7.812;2022-09-28T08:30:36;98757.78;;;9.52;100.00
21904;BME280;11116;51.554;7.812;2022-09-28T08:33:32;98759.56;;;9.84;100.00
21904;BME280;11116;51.554;7.812;2022-09-28T08:36:19;98756.59;;;9.79;100.00
21904;BME280;11116;51.554;7.812;2022-09-28T08:39:05;98763.59;;;10.02;100.00
21904;BME280;11116;51.554;7.812;2022-09-28T08:41:59;98752.16;;;9.71;100.00
21904;BME280;11116;51.554;7.812;2022-09-28T08:44:39;98764.28;;;9.96;100.00
21904;BME280;11116;51.554;7.812;2022-09-28T08:47:31;98768.84;;;10.10;100.00
21904;BME280;11116;51.554;7.812;2022-09-28T08:50:30;98771.34;;;10.12;100.00
21904;BME280;11116;51.554;7.812;2022-09-28T08:53:34;98776.53;;;9.89;100.00
21904;BME280;11116;51.554;7.812;2022-09-28T08:56:17;98770.19;;;10.14;100.00
21904;BME280;11116;51.554;7.812;2022-09-28T08:58:51;98779.88;;;10.30;100.00
21904;BME280;11116;51.554;7.812;2022-09-28T09:01:22;98781.69;;;10.21;100.00
21904;BME280;11116;51.554;7.812;2022-09-28T09:03:51;98772.75;;;10.31;100.00
21904;BME280;11116;51.554;7.812;2022-09-28T09:06:46;98780.41;;;10.17;100.00
21904;BME280;11116;51.554;7.812;2022-09-28T09:09:38;98782.00;;;10.35;100.00
21904;BME280;11116;51.554;7.812;2022-09-28T09:12:13;98787.03;;;9.97;100.00
21904;BME280;11116;51.554;7.812;2022-09-28T09:15:14;98789.28;;;10.25;100.00
21904;BME280;11116;51.554;7.812;2022-09-28T09:17:52;98802.31;;;10.26;100.00
21904;BME280;11116;51.554;7.812;2022-09-28T09:20:47;98809.78;;;10.14;100.00
21904;BME280;11116;51.554;7.812;2022-09-28T09:23:51;98808.63;;;10.01;100.00
21904;BME280;11116;51.554;7.812;2022-09-28T09:26:31;98812.56;;;10.13;100.00
21904;BME280;11116;51.554;7.812;2022-09-28T09:29:19;98807.47;;;10.03;100.00
21904;BME280;11116;51.554;7.812;2022-09-28T09:32:16;98813.91;;;10.01;100.00
21904;BME280;11116;51.554;7.812;2022-09-28T09:35:00;98815.69;;;10.08;100.00
21904;BME280;11116;51.554;7.812;2022-09-28T09:38:20;98823.19;;;9.64;100.00
21904;BME280;11116;51.554;7.812;2022-09-28T09:41:37;98826.31;;;9.52;100.00
21904;BME280;11116;51.554;7.812;2022-09-28T09:44:45;98839.66;;;9.58;100.00
21904;BME280;11116;51.554;7.812;2022-09-28T09:47:35;98833.75;;;9.56;100.00
21904;BME280;11116;51.554;7.812;2022-09-28T09:50:20;98833.72;;;9.40;100.00
21904;BME280;11116;51.554;7.812;2022-09-28T09:52:57;98841.63;;;9.40;100.00
21904;BME280;11116;51.554;7.812;2022-09-28T09:55:28;98847.56;;;9.58;100.00
21904;BME280;11116;51.554;7.812;2022-09-28T09:58:20;98850.22;;;9.42;100.00
21904;BME280;11116;51.554;7.812;2022-09-28T10:01:06;98839.50;;;9.52;100.00
21904;BME280;11116;51.554;7.812;2022-09-28T10:03:53;98845.44;;;9.62;100.00
21904;BME280;11116;51.554;7.812;2022-09-28T10:06:26;98847.56;;;9.58;100.00
21904;BME280;11116;51.554;7.812;2022-09-28T10:09:00;98847.22;;;9.70;100.00
21904;BME280;11116;51.554;7.812;2022-09-28T10:11:32;98847.22;;;9.70;100.00
21904;BME280;11116;51.554;7.812;2022-09-28T10:14:03;98841.63;;;9.73;100.00
21904;BME280;11116;51.554;7.812;2022-09-28T10:16:49;98838.16;;;9.64;100.00
21904;BME280;11116;51.554;7.812;2022-09-28T10:19:37;98841.16;;;9.69;100.00
21904;BME280;11116;51.554;7.812;2022-09-28T10:22:24;98844.88;;;9.99;100.00
21904;BME280;11116;51.554;7.812;2022-09-28T10:24:53;98837.13;;;10.13;100.00
21904;BME280;11116;51.554;7.812;2022-09-28T10:27:24;98842.91;;;10.09;100.00
21904;BME280;11116;51.554;7.812;2022-09-28T10:29:55;98850.44;;;10.28;100.00
21904;BME280;11116;51.554;7.812;2022-09-28T10:32:26;98848.34;;;10.24;100.00
21904;BME280;11116;51.554;7.812;2022-09-28T10:35:12;98854.28;;;10.64;100.00
21904;BME280;11116;51.554;7.812;2022-09-28T10:37:49;98857.31;;;10.53;100.00
21904;BME280;11116;51.554;7.812;2022-09-28T10:40:41;98856.94;;;10.64;100.00
21904;BME280;11116;51.554;7.812;2022-09-28T10:43:17;98856.25;;;10.62;100.00
21904;BME280;11116;51.554;7.812;2022-09-28T10:45:48;98858.31;;;10.83;100.00
21904;BME280;11116;51.554;7.812;2022-09-28T10:48:26;98854.22;;;11.03;100.00
21904;BME280;11116;51.554;7.812;2022-09-28T10:50:59;98857.69;;;11.04;100.00
21904;BME280;11116;51.554;7.812;2022-09-28T10:53:28;98858.59;;;10.96;100.00
21904;BME280;11116;51.554;7.812;2022-09-28T10:56:19;98861.88;;;11.44;100.00
21904;BME280;11116;51.554;7.812;2022-09-28T10:58:49;98855.13;;;11.41;100.00
21904;BME280;11116;51.554;7.812;2022-09-28T11:01:29;98850.53;;;11.35;98.33
21904;BME280;11116;51.554;7.812;2022-09-28T11:03:59;98852.44;;;11.26;97.20
21904;BME280;11116;51.554;7.812;2022-09-28T11:06:28;98852.47;;;11.41;96.60
21904;BME280;11116;51.554;7.812;2022-09-28T11:08:59;98864.03;;;10.95;96.40
21904;BME280;11116;51.554;7.812;2022-09-28T11:11:27;98856.53;;;11.06;96.29
21904;BME280;11116;51.554;7.812;2022-09-28T11:14:03;98857.47;;;11.13;96.17
21904;BME280;11116;51.554;7.812;2022-09-28T11:16:35;98854.13;;;10.97;95.54
21904;BME280;11116;51.554;7.812;2022-09-28T11:19:05;98870.16;;;11.18;95.69
21904;BME280;11116;51.554;7.812;2022-09-28T11:21:41;98858.72;;;11.03;95.63
21904;BME280;11116;51.554;7.812;2022-09-28T11:24:18;98856.41;;;11.00;95.51
21904;BME280;11116;51.554;7.812;2022-09-28T11:26:48;98862.41;;;10.86;96.05
21904;BME280;11116;51.554;7.812;2022-09-28T11:29:23;98861.38;;;10.64;94.76
21904;BME280;11116;51.554;7.812;2022-09-28T11:32:13;98857.75;;;10.65;95.13
21904;BME280;11116;51.554;7.812;2022-09-28T11:35:01;98868.47;;;10.63;95.33
21904;BME280;11116;51.554;7.812;2022-09-28T11:37:44;98866.56;;;10.80;97.06
21904;BME280;11116;51.554;7.812;2022-09-28T11:40:41;98868.13;;;10.97;96.82
21904;BME280;11116;51.554;7.812;2022-09-28T11:43:16;98874.44;;;10.96;96.28
21904;BME280;11116;51.554;7.812;2022-09-28T11:45:50;98872.28;;;10.92;96.48
21904;BME280;11116;51.554;7.812;2022-09-28T11:48:24;98869.91;;;10.74;95.47
21904;BME280;11116;51.554;7.812;2022-09-28T11:50:58;98874.78;;;10.93;96.53
21904;BME280;11116;51.554;7.812;2022-09-28T11:53:31;98873.56;;;11.04;95.56
21904;BME280;11116;51.554;7.812;2022-09-28T11:56:05;98868.41;;;11.10;94.58
21904;BME280;11116;51.554;7.812;2022-09-28T11:58:39;98876.88;;;10.98;93.56
21904;BME280;11116;51.554;7.812;2022-09-28T12:01:19;98879.56;;;10.90;93.76
21904;BME280;11116;51.554;7.812;2022-09-28T12:04:15;98869.97;;;10.97;93.20
21904;BME280;11116;51.554;7.812;2022-09-28T12:06:49;98878.50;;;11.07;93.86
21904;BME280;11116;51.554;7.812;2022-09-28T12:09:24;98875.63;;;11.16;93.00
21904;BME280;11116;51.554;7.812;2022-09-28T12:12:15;98866.13;;;11.30;91.69
21904;BME280;11116;51.554;7.812;2022-09-28T12:14:44;98876.34;;;11.56;91.54
21904;BME280;11116;51.554;7.812;2022-09-28T12:17:19;98875.84;;;11.38;91.41
21904;BME280;11116;51.554;7.812;2022-09-28T12:19:52;98871.34;;;11.61;91.23
21904;BME280;11116;51.554;7.812;2022-09-28T12:22:25;98871.03;;;11.56;90.43
21904;BME280;11116;51.554;7.812;2022-09-28T12:24:56;98872.28;;;11.45;90.47
21904;BME280;11116;51.554;7.812;2022-09-28T12:27:28;98863.50;;;11.67;89.12
21904;BME280;11116;51.554;7.812;2022-09-28T12:30:02;98860.59;;;11.85;88.89
21904;BME280;11116;51.554;7.812;2022-09-28T12:32:37;98858.91;;;12.07;88.55
21904;BME280;11116;51.554;7.812;2022-09-28T12:35:12;98862.06;;;12.02;87.55
21904;BME280;11116;51.554;7.812;2022-09-28T12:37:54;98851.31;;;12.04;87.15
21904;BME280;11116;51.554;7.812;2022-09-28T12:40:40;98858.00;;;12.43;87.83
21904;BME280;11116;51.554;7.812;2022-09-28T12:43:30;98847.31;;;12.37;86.03
21904;BME280;11116;51.554;7.812;2022-09-28T12:46:14;98848.84;;;12.02;83.58
21904;BME280;11116;51.554;7.812;2022-09-28T12:51:47;98850.16;;;12.50;84.46
21904;BME280;11116;51.554;7.812;2022-09-28T12:54:39;98851.13;;;12.49;84.81
21904;BME280;11116;51.554;7.812;2022-09-28T12:57:36;98846.69;;;12.35;83.69
21904;BME280;11116;51.554;7.812;2022-09-28T13:00:09;98847.66;;;12.34;83.63
21904;BME280;11116;51.554;7.812;2022-09-28T13:03:08;98845.69;;;12.51;82.41
21904;BME280;11116;51.554;7.812;2022-09-28T13:06:20;98852.81;;;12.86;82.17
21904;BME280;11116;51.554;7.812;2022-09-28T13:09:02;98852.97;;;12.99;81.90
21904;BME280;11116;51.554;7.812;2022-09-28T13:11:40;98853.44;;;13.02;80.96
21904;BME280;11116;51.554;7.812;2022-09-28T13:14:24;98853.38;;;12.81;81.65
21904;BME280;11116;51.554;7.812;2022-09-28T13:17:00;98851.03;;;12.72;81.97
21904;BME280;11116;51.554;7.812;2022-09-28T13:19:37;98852.59;;;12.52;81.22
21904;BME280;11116;51.554;7.812;2022-09-28T13:22:19;98842.47;;;12.55;81.37
21904;BME280;11116;51.554;7.812;2022-09-28T13:24:52;98853.16;;;12.32;82.57
21904;BME280;11116;51.554;7.812;2022-09-28T13:27:26;98850.31;;;12.34;83.41
21904;BME280;11116;51.554;7.812;2022-09-28T13:29:57;98847.41;;;12.29;82.70
21904;BME280;11116;51.554;7.812;2022-09-28T13:32:26;98842.38;;;12.19;81.82
21904;BME280;11116;51.554;7.812;2022-09-28T13:34:56;98845.84;;;12.34;81.99
21904;BME280;11116;51.554;7.812;2022-09-28T13:37:27;98847.41;;;12.29;82.92
21904;BME280;11116;51.554;7.812;2022-09-28T13:39:56;98842.31;;;12.27;83.95
21904;BME280;11116;51.554;7.812;2022-09-28T13:42:48;98852.97;;;12.48;83.19
21904;BME280;11116;51.554;7.812;2022-09-28T13:45:30;98842.75;;;12.45;83.13
21904;BME280;11116;51.554;7.812;2022-09-28T13:48:17;98851.78;;;12.36;82.67
21904;BME280;11116;51.554;7.812;2022-09-28T13:51:05;98851.47;;;12.75;82.70